sensor_id;sensor_type;location;lat;lon;timestamp;P1;durP1;ratioP1;P2;durP2;ratioP2
77350;SDS011;66420;50.246;14.320;2023-03-12T00:00:06;12.93;;;5.60;;
77350;SDS011;66420;50.246;14.320;2023-03-12T00:02:53;15.73;;;7.28;;
77350;SDS011;66420;50.246;14.320;2023-03-12T00:05:39;16.05;;;6.22;;
77350;SDS011;66420;50.246;14.320;2023-03-12T00:08:24;18.35;;;5.70;;
77350;SDS011;66420;50.246;14.320;2023-03-12T00:11:10;15.43;;;5.22;;
77350;SDS011;66420;50.246;14.320;2023-03-12T00:13:56;12.13;;;4.88;;
77350;SDS011;66420;50.246;14.320;2023-03-12T00:16:43;13.88;;;5.85;;
77350;SDS011;66420;50.246;14.320;2023-03-12T00:19:27;10.90;;;5.13;;
77350;SDS011;66420;50.246;14.320;2023-03-12T00:22:12;11.43;;;5.35;;
77350;SDS011;66420;50.246;14.320;2023-03-12T00:24:59;12.25;;;5.90;;
77350;SDS011;66420;50.246;14.320;2023-03-12T00:27:44;15.05;;;6.40;;
77350;SDS011;66420;50.246;14.320;2023-03-12T00:30:29;12.82;;;4.80;;
77350;SDS011;66420;50.246;14.320;2023-03-12T00:33:14;13.35;;;5.85;;
77350;SDS011;66420;50.246;14.320;2023-03-12T00:35:59;18.00;;;6.63;;
77350;SDS011;66420;50.246;14.320;2023-03-12T00:38:44;12.35;;;5.32;;
77350;SDS011;66420;50.246;14.320;2023-03-12T00:41:29;17.65;;;5.32;;
77350;SDS011;66420;50.246;14.320;2023-03-12T00:44:14;13.25;;;5.18;;
77350;SDS011;66420;50.246;14.320;2023-03-12T00:46:59;15.32;;;6.20;;
77350;SDS011;66420;50.246;14.320;2023-03-12T00:49:44;15.25;;;5.93;;
77350;SDS011;66420;50.246;14.320;2023-03-12T00:52:28;16.42;;;6.47;;
77350;SDS011;66420;50.246;14.320;2023-03-12T00:55:13;13.80;;;5.43;;
77350;SDS011;66420;50.246;14.320;2023-03-12T00:57:58;17.38;;;7.05;;
77350;SDS011;66420;50.246;14.320;2023-03-12T01:00:42;15.38;;;6.97;;
77350;SDS011;66420;50.246;14.320;2023-03-12T01:03:27;14.88;;;5.63;;
77350;SDS011;66420;50.246;14.320;2023-03-12T01:06:11;7.38;;;4.03;;
77350;SDS011;66420;50.246;14.320;2023-03-12T01:08:56;11.95;;;4.53;;
77350;SDS011;66420;50.246;14.320;2023-03-12T01:11:41;13.25;;;4.93;;
77350;SDS011;66420;50.246;14.320;2023-03-12T01:14:26;14.63;;;4.70;;
77350;SDS011;66420;50.246;14.320;2023-03-12T01:17:10;12.85;;;4.45;;
77350;SDS011;66420;50.246;14.320;2023-03-12T01:19:55;12.10;;;4.47;;
77350;SDS011;66420;50.246;14.320;2023-03-12T01:22:41;12.63;;;3.72;;
77350;SDS011;66420;50.246;14.320;2023-03-12T01:25:25;13.20;;;4.25;;
77350;SDS011;66420;50.246;14.320;2023-03-12T01:28:10;7.88;;;3.72;;
77350;SDS011;66420;50.246;14.320;2023-03-12T01:30:54;10.93;;;3.50;;
77350;SDS011;66420;50.246;14.320;2023-03-12T01:33:39;11.27;;;3.53;;
77350;SDS011;66420;50.246;14.320;2023-03-12T01:36:25;13.02;;;4.20;;
77350;SDS011;66420;50.246;14.320;2023-03-12T01:39:12;7.53;;;3.15;;
77350;SDS011;66420;50.246;14.320;2023-03-12T01:41:57;7.57;;;3.65;;
77350;SDS011;66420;50.246;14.320;2023-03-12T01:44:58;9.60;;;3.55;;
77350;SDS011;66420;50.246;14.320;2023-03-12T01:47:44;12.05;;;3.88;;
77350;SDS011;66420;50.246;14.320;2023-03-12T01:50:29;10.98;;;3.13;;
77350;SDS011;66420;50.246;14.320;2023-03-12T01:53:14;9.13;;;4.25;;
77350;SDS011;66420;50.246;14.320;2023-03-12T01:56:00;10.07;;;3.50;;
77350;SDS011;66420;50.246;14.320;2023-03-12T01:58:47;10.95;;;4.38;;
77350;SDS011;66420;50.246;14.320;2023-03-12T02:04:21;10.38;;;4.18;;
77350;SDS011;66420;50.246;14.320;2023-03-12T02:09:54;10.43;;;3.78;;
77350;SDS011;66420;50.246;14.320;2023-03-12T02:12:40;11.85;;;3.95;;
77350;SDS011;66420;50.246;14.320;2023-03-12T02:15:24;10.98;;;3.67;;
77350;SDS011;66420;50.246;14.320;2023-03-12T02:18:10;13.57;;;4.05;;
77350;SDS011;66420;50.246;14.320;2023-03-12T02:23:51;11.52;;;3.78;;
77350;SDS011;66420;50.246;14.320;2023-03-12T02:26:46;12.63;;;4.45;;
77350;SDS011;66420;50.246;14.320;2023-03-12T02:29:33;11.20;;;3.70;;
77350;SDS011;66420;50.246;14.320;2023-03-12T02:32:22;12.27;;;4.05;;
77350;SDS011;66420;50.246;14.320;2023-03-12T02:35:09;7.90;;;3.50;;
77350;SDS011;66420;50.246;14.320;2023-03-12T02:37:56;8.27;;;3.05;;
77350;SDS011;66420;50.246;14.320;2023-03-12T02:40:42;7.55;;;2.95;;
77350;SDS011;66420;50.246;14.320;2023-03-12T02:43:30;10.27;;;3.22;;
77350;SDS011;66420;50.246;14.320;2023-03-12T02:46:15;7.07;;;2.65;;
77350;SDS011;66420;50.246;14.320;2023-03-12T02:49:01;6.68;;;3.45;;
77350;SDS011;66420;50.246;14.320;2023-03-12T02:51:46;5.65;;;3.00;;
77350;SDS011;66420;50.246;14.320;2023-03-12T02:54:31;10.95;;;3.72;;
77350;SDS011;66420;50.246;14.320;2023-03-12T02:57:16;9.13;;;3.25;;
77350;SDS011;66420;50.246;14.320;2023-03-12T03:00:01;10.68;;;3.72;;
77350;SDS011;66420;50.246;14.320;2023-03-12T03:02:45;18.98;;;4.63;;
77350;SDS011;66420;50.246;14.320;2023-03-12T03:05:30;14.98;;;4.22;;
77350;SDS011;66420;50.246;14.320;2023-03-12T03:08:15;9.73;;;3.05;;
77350;SDS011;66420;50.246;14.320;2023-03-12T03:11:00;12.13;;;3.75;;
77350;SDS011;66420;50.246;14.320;2023-03-12T03:13:46;7.53;;;3.28;;
77350;SDS011;66420;50.246;14.320;2023-03-12T03:16:30;10.32;;;3.78;;
77350;SDS011;66420;50.246;14.320;2023-03-12T03:19:15;7.50;;;3.28;;
77350;SDS011;66420;50.246;14.320;2023-03-12T03:22:00;10.35;;;3.10;;
77350;SDS011;66420;50.246;14.320;2023-03-12T03:24:45;8.52;;;3.05;;
77350;SDS011;66420;50.246;14.320;2023-03-12T03:27:30;8.02;;;3.38;;
77350;SDS011;66420;50.246;14.320;2023-03-12T03:30:15;6.95;;;2.38;;
77350;SDS011;66420;50.246;14.320;2023-03-12T03:33:00;7.72;;;2.75;;
77350;SDS011;66420;50.246;14.320;2023-03-12T03:35:44;8.65;;;3.20;;
77350;SDS011;66420;50.246;14.320;2023-03-12T03:38:31;10.68;;;3.20;;
77350;SDS011;66420;50.246;14.320;2023-03-12T03:41:18;6.10;;;2.58;;
77350;SDS011;66420;50.246;14.320;2023-03-12T03:44:03;7.88;;;3.03;;
77350;SDS011;66420;50.246;14.320;2023-03-12T03:46:49;9.10;;;3.30;;
77350;SDS011;66420;50.246;14.320;2023-03-12T03:49:35;7.03;;;2.55;;
77350;SDS011;66420;50.246;14.320;2023-03-12T03:52:19;6.63;;;2.58;;
77350;SDS011;66420;50.246;14.320;2023-03-12T03:55:04;5.00;;;2.50;;
77350;SDS011;66420;50.246;14.320;2023-03-12T03:57:49;6.53;;;2.92;;
77350;SDS011;66420;50.246;14.320;2023-03-12T04:00:34;7.38;;;2.97;;
77350;SDS011;66420;50.246;14.320;2023-03-12T04:03:19;9.85;;;2.78;;
77350;SDS011;66420;50.246;14.320;2023-03-12T04:06:04;7.28;;;2.97;;
77350;SDS011;66420;50.246;14.320;2023-03-12T04:08:50;11.52;;;2.78;;
77350;SDS011;66420;50.246;14.320;2023-03-12T04:11:35;8.55;;;3.00;;
77350;SDS011;66420;50.246;14.320;2023-03-12T04:14:21;9.40;;;3.03;;
77350;SDS011;66420;50.246;14.320;2023-03-12T04:17:05;9.88;;;2.53;;
77350;SDS011;66420;50.246;14.320;2023-03-12T04:19:51;6.88;;;3.15;;
77350;SDS011;66420;50.246;14.320;2023-03-12T04:22:36;7.07;;;2.70;;
77350;SDS011;66420;50.246;14.320;2023-03-12T04:25:20;7.57;;;2.60;;
77350;SDS011;66420;50.246;14.320;2023-03-12T04:28:05;6.50;;;2.40;;
77350;SDS011;66420;50.246;14.320;2023-03-12T04:30:56;6.63;;;2.60;;
77350;SDS011;66420;50.246;14.320;2023-03-12T04:33:45;6.93;;;2.40;;
77350;SDS011;66420;50.246;14.320;2023-03-12T04:36:30;8.68;;;2.92;;
77350;SDS011;66420;50.246;14.320;2023-03-12T04:39:16;10.70;;;3.05;;
77350;SDS011;66420;50.246;14.320;2023-03-12T04:42:02;6.47;;;2.50;;
77350;SDS011;66420;50.246;14.320;2023-03-12T04:44:46;6.85;;;2.88;;
77350;SDS011;66420;50.246;14.320;2023-03-12T04:47:35;9.25;;;3.00;;
77350;SDS011;66420;50.246;14.320;2023-03-12T04:50:20;8.25;;;3.30;;
77350;SDS011;66420;50.246;14.320;2023-03-12T04:53:05;6.28;;;2.80;;
77350;SDS011;66420;50.246;14.320;2023-03-12T04:55:50;8.05;;;3.25;;
77350;SDS011;66420;50.246;14.320;2023-03-12T04:58:35;5.65;;;2.13;;
77350;SDS011;66420;50.246;14.320;2023-03-12T05:01:21;6.70;;;2.47;;
77350;SDS011;66420;50.246;14.320;2023-03-12T05:04:07;6.35;;;2.75;;
77350;SDS011;66420;50.246;14.320;2023-03-12T05:06:52;9.68;;;2.58;;
77350;SDS011;66420;50.246;14.320;2023-03-12T05:09:37;4.90;;;2.40;;
77350;SDS011;66420;50.246;14.320;2023-03-12T05:12:21;6.90;;;2.70;;
77350;SDS011;66420;50.246;14.320;2023-03-12T05:15:06;7.95;;;2.40;;
77350;SDS011;66420;50.246;14.320;2023-03-12T05:17:52;9.15;;;2.90;;
77350;SDS011;66420;50.246;14.320;2023-03-12T05:20:36;8.43;;;3.10;;
77350;SDS011;66420;50.246;14.320;2023-03-12T05:23:22;4.53;;;2.10;;
77350;SDS011;66420;50.246;14.320;2023-03-12T05:26:07;8.00;;;2.88;;
77350;SDS011;66420;50.246;14.320;2023-03-12T05:28:59;12.85;;;2.50;;
77350;SDS011;66420;50.246;14.320;2023-03-12T05:34:13;7.00;;;2.15;;
77350;SDS011;66420;50.246;14.320;2023-03-12T05:36:58;4.88;;;2.45;;
77350;SDS011;66420;50.246;14.320;2023-03-12T05:39:43;5.00;;;2.10;;
77350;SDS011;66420;50.246;14.320;2023-03-12T05:42:30;7.82;;;2.67;;
77350;SDS011;66420;50.246;14.320;2023-03-12T05:45:14;8.35;;;2.55;;
77350;SDS011;66420;50.246;14.320;2023-03-12T05:47:59;8.40;;;2.72;;
77350;SDS011;66420;50.246;14.320;2023-03-12T05:50:44;6.05;;;2.33;;
77350;SDS011;66420;50.246;14.320;2023-03-12T05:53:29;7.40;;;2.72;;
77350;SDS011;66420;50.246;14.320;2023-03-12T05:56:15;7.53;;;2.47;;
77350;SDS011;66420;50.246;14.320;2023-03-12T06:04:12;5.75;;;2.60;;
77350;SDS011;66420;50.246;14.320;2023-03-12T06:06:57;4.65;;;2.25;;
77350;SDS011;66420;50.246;14.320;2023-03-12T06:09:41;5.05;;;2.20;;
77350;SDS011;66420;50.246;14.320;2023-03-12T06:12:26;8.32;;;2.33;;
77350;SDS011;66420;50.246;14.320;2023-03-12T06:15:10;7.10;;;2.53;;
77350;SDS011;66420;50.246;14.320;2023-03-12T06:17:55;7.28;;;2.45;;
77350;SDS011;66420;50.246;14.320;2023-03-12T06:20:39;11.30;;;2.47;;
77350;SDS011;66420;50.246;14.320;2023-03-12T06:23:24;8.02;;;2.60;;
77350;SDS011;66420;50.246;14.320;2023-03-12T06:26:10;10.20;;;2.45;;
77350;SDS011;66420;50.246;14.320;2023-03-12T06:28:55;8.40;;;3.00;;
77350;SDS011;66420;50.246;14.320;2023-03-12T06:31:40;6.55;;;2.83;;
77350;SDS011;66420;50.246;14.320;2023-03-12T06:34:36;10.15;;;4.10;;
77350;SDS011;66420;50.246;14.320;2023-03-12T06:37:22;10.65;;;3.60;;
77350;SDS011;66420;50.246;14.320;2023-03-12T06:42:50;11.02;;;3.97;;
77350;SDS011;66420;50.246;14.320;2023-03-12T06:45:35;12.70;;;4.28;;
77350;SDS011;66420;50.246;14.320;2023-03-12T06:48:19;7.15;;;3.20;;
77350;SDS011;66420;50.246;14.320;2023-03-12T06:51:04;8.40;;;3.72;;
77350;SDS011;66420;50.246;14.320;2023-03-12T06:53:49;7.38;;;3.60;;
77350;SDS011;66420;50.246;14.320;2023-03-12T06:56:34;9.63;;;3.65;;
77350;SDS011;66420;50.246;14.320;2023-03-12T06:59:19;7.00;;;2.92;;
77350;SDS011;66420;50.246;14.320;2023-03-12T07:02:05;5.28;;;3.17;;
77350;SDS011;66420;50.246;14.320;2023-03-12T07:04:50;9.18;;;3.50;;
77350;SDS011;66420;50.246;14.320;2023-03-12T07:07:34;8.40;;;3.38;;
77350;SDS011;66420;50.246;14.320;2023-03-12T07:10:19;8.05;;;3.08;;
77350;SDS011;66420;50.246;14.320;2023-03-12T07:13:04;9.18;;;3.22;;
77350;SDS011;66420;50.246;14.320;2023-03-12T07:15:49;11.40;;;3.28;;
77350;SDS011;66420;50.246;14.320;2023-03-12T07:18:34;6.68;;;2.80;;
77350;SDS011;66420;50.246;14.320;2023-03-12T07:21:19;7.97;;;3.35;;
77350;SDS011;66420;50.246;14.320;2023-03-12T07:24:07;5.75;;;2.47;;
77350;SDS011;66420;50.246;14.320;2023-03-12T07:26:52;8.20;;;3.05;;
77350;SDS011;66420;50.246;14.320;2023-03-12T07:29:37;8.32;;;4.00;;
77350;SDS011;66420;50.246;14.320;2023-03-12T07:32:22;9.07;;;3.65;;
77350;SDS011;66420;50.246;14.320;2023-03-12T07:35:07;11.40;;;3.90;;
77350;SDS011;66420;50.246;14.320;2023-03-12T07:37:52;9.25;;;3.65;;
77350;SDS011;66420;50.246;14.320;2023-03-12T07:40:37;7.20;;;3.25;;
77350;SDS011;66420;50.246;14.320;2023-03-12T07:43:22;7.22;;;3.88;;
77350;SDS011;66420;50.246;14.320;2023-03-12T07:46:08;11.88;;;4.30;;
77350;SDS011;66420;50.246;14.320;2023-03-12T07:48:53;10.93;;;4.43;;
77350;SDS011;66420;50.246;14.320;2023-03-12T07:51:38;8.70;;;3.10;;
77350;SDS011;66420;50.246;14.320;2023-03-12T07:54:22;10.02;;;3.63;;
77350;SDS011;66420;50.246;14.320;2023-03-12T07:57:12;10.52;;;3.33;;
77350;SDS011;66420;50.246;14.320;2023-03-12T07:59:57;7.55;;;3.05;;
77350;SDS011;66420;50.246;14.320;2023-03-12T08:02:42;8.80;;;3.28;;
77350;SDS011;66420;50.246;14.320;2023-03-12T08:05:26;8.15;;;3.58;;
77350;SDS011;66420;50.246;14.320;2023-03-12T08:08:11;10.13;;;3.40;;
77350;SDS011;66420;50.246;14.320;2023-03-12T08:10:56;6.18;;;2.88;;
77350;SDS011;66420;50.246;14.320;2023-03-12T08:13:42;6.07;;;2.78;;
77350;SDS011;66420;50.246;14.320;2023-03-12T08:16:27;6.60;;;2.60;;
77350;SDS011;66420;50.246;14.320;2023-03-12T08:19:12;7.35;;;2.67;;
77350;SDS011;66420;50.246;14.320;2023-03-12T08:21:57;7.15;;;2.35;;
77350;SDS011;66420;50.246;14.320;2023-03-12T08:24:42;7.55;;;3.30;;
77350;SDS011;66420;50.246;14.320;2023-03-12T08:27:27;6.05;;;2.70;;
77350;SDS011;66420;50.246;14.320;2023-03-12T08:30:12;5.85;;;2.50;;
77350;SDS011;66420;50.246;14.320;2023-03-12T08:32:57;5.38;;;2.40;;
77350;SDS011;66420;50.246;14.320;2023-03-12T08:35:42;4.80;;;2.08;;
77350;SDS011;66420;50.246;14.320;2023-03-12T08:38:27;5.38;;;2.00;;
77350;SDS011;66420;50.246;14.320;2023-03-12T08:41:12;6.97;;;2.20;;
77350;SDS011;66420;50.246;14.320;2023-03-12T08:43:56;7.75;;;3.45;;
77350;SDS011;66420;50.246;14.320;2023-03-12T08:46:41;7.68;;;2.70;;
77350;SDS011;66420;50.246;14.320;2023-03-12T08:49:26;5.90;;;2.42;;
77350;SDS011;66420;50.246;14.320;2023-03-12T08:52:11;7.72;;;2.28;;
77350;SDS011;66420;50.246;14.320;2023-03-12T08:54:56;6.00;;;2.40;;
77350;SDS011;66420;50.246;14.320;2023-03-12T08:57:40;5.35;;;2.03;;
77350;SDS011;66420;50.246;14.320;2023-03-12T09:00:25;4.43;;;1.98;;
77350;SDS011;66420;50.246;14.320;2023-03-12T09:03:10;6.13;;;2.20;;
77350;SDS011;66420;50.246;14.320;2023-03-12T09:06:06;5.57;;;1.85;;
77350;SDS011;66420;50.246;14.320;2023-03-12T09:08:56;4.25;;;1.80;;
77350;SDS011;66420;50.246;14.320;2023-03-12T09:11:40;7.72;;;2.28;;
77350;SDS011;66420;50.246;14.320;2023-03-12T09:14:25;3.05;;;1.50;;
77350;SDS011;66420;50.246;14.320;2023-03-12T09:17:10;6.45;;;1.50;;
77350;SDS011;66420;50.246;14.320;2023-03-12T09:19:54;4.38;;;1.42;;
77350;SDS011;66420;50.246;14.320;2023-03-12T09:22:40;6.53;;;1.70;;
77350;SDS011;66420;50.246;14.320;2023-03-12T09:25:24;6.82;;;1.80;;
77350;SDS011;66420;50.246;14.320;2023-03-12T09:28:09;2.88;;;1.15;;
77350;SDS011;66420;50.246;14.320;2023-03-12T09:30:54;3.22;;;1.38;;
77350;SDS011;66420;50.246;14.320;2023-03-12T09:33:39;5.45;;;2.08;;
77350;SDS011;66420;50.246;14.320;2023-03-12T09:36:24;5.18;;;1.20;;
77350;SDS011;66420;50.246;14.320;2023-03-12T09:39:09;3.35;;;1.27;;
77350;SDS011;66420;50.246;14.320;2023-03-12T09:41:54;3.42;;;1.23;;
77350;SDS011;66420;50.246;14.320;2023-03-12T09:44:40;3.80;;;1.38;;
77350;SDS011;66420;50.246;14.320;2023-03-12T09:47:32;5.97;;;1.67;;
77350;SDS011;66420;50.246;14.320;2023-03-12T09:50:37;2.65;;;1.10;;
77350;SDS011;66420;50.246;14.320;2023-03-12T09:56:12;3.72;;;1.23;;
77350;SDS011;66420;50.246;14.320;2023-03-12T10:01:50;2.97;;;1.30;;
77350;SDS011;66420;50.246;14.320;2023-03-12T10:04:39;5.40;;;1.40;;
77350;SDS011;66420;50.246;14.320;2023-03-12T10:07:36;3.28;;;1.38;;
77350;SDS011;66420;50.246;14.320;2023-03-12T10:10:35;4.80;;;1.40;;
77350;SDS011;66420;50.246;14.320;2023-03-12T10:13:31;2.92;;;1.20;;
77350;SDS011;66420;50.246;14.320;2023-03-12T10:16:48;5.10;;;1.35;;
77350;SDS011;66420;50.246;14.320;2023-03-12T10:19:42;3.05;;;1.15;;
77350;SDS011;66420;50.246;14.320;2023-03-12T10:25:39;5.45;;;1.40;;
77350;SDS011;66420;50.246;14.320;2023-03-12T10:31:47;2.72;;;1.05;;
77350;SDS011;66420;50.246;14.320;2023-03-12T10:34:46;2.70;;;1.25;;
77350;SDS011;66420;50.246;14.320;2023-03-12T10:40:24;4.22;;;1.30;;
77350;SDS011;66420;50.246;14.320;2023-03-12T10:43:17;6.03;;;1.60;;
77350;SDS011;66420;50.246;14.320;2023-03-12T10:46:23;3.10;;;1.17;;
77350;SDS011;66420;50.246;14.320;2023-03-12T10:52:16;4.07;;;1.48;;
77350;SDS011;66420;50.246;14.320;2023-03-12T10:55:20;3.25;;;1.30;;
77350;SDS011;66420;50.246;14.320;2023-03-12T10:58:22;8.95;;;1.90;;
77350;SDS011;66420;50.246;14.320;2023-03-12T11:07:17;4.85;;;1.77;;
77350;SDS011;66420;50.246;14.320;2023-03-12T11:12:55;5.57;;;2.10;;
77350;SDS011;66420;50.246;14.320;2023-03-12T11:15:48;6.45;;;2.00;;
77350;SDS011;66420;50.246;14.320;2023-03-12T11:18:34;6.45;;;1.98;;
77350;SDS011;66420;50.246;14.320;2023-03-12T11:21:21;5.32;;;2.20;;
77350;SDS011;66420;50.246;14.320;2023-03-12T11:24:08;3.95;;;1.73;;
77350;SDS011;66420;50.246;14.320;2023-03-12T11:27:04;5.82;;;2.25;;
77350;SDS011;66420;50.246;14.320;2023-03-12T11:30:11;3.40;;;1.90;;
77350;SDS011;66420;50.246;14.320;2023-03-12T11:33:00;6.50;;;2.47;;
77350;SDS011;66420;50.246;14.320;2023-03-12T11:47:39;3.75;;;2.00;;
77350;SDS011;66420;50.246;14.320;2023-03-12T11:56:52;7.93;;;1.80;;
77350;SDS011;66420;50.246;14.320;2023-03-12T12:06:12;4.75;;;1.60;;
77350;SDS011;66420;50.246;14.320;2023-03-12T12:09:07;5.28;;;1.88;;
77350;SDS011;66420;50.246;14.320;2023-03-12T12:12:10;4.75;;;1.70;;
77350;SDS011;66420;50.246;14.320;2023-03-12T12:28:52;5.32;;;2.00;;
77350;SDS011;66420;50.246;14.320;2023-03-12T12:32:14;4.35;;;2.05;;
77350;SDS011;66420;50.246;14.320;2023-03-12T12:35:10;6.55;;;2.30;;
77350;SDS011;66420;50.246;14.320;2023-03-12T12:38:08;6.65;;;1.98;;
77350;SDS011;66420;50.246;14.320;2023-03-12T12:44:11;5.43;;;2.00;;
77350;SDS011;66420;50.246;14.320;2023-03-12T12:47:02;7.10;;;2.65;;
77350;SDS011;66420;50.246;14.320;2023-03-12T12:49:51;6.88;;;2.08;;
77350;SDS011;66420;50.246;14.320;2023-03-12T12:52:41;5.53;;;2.92;;
77350;SDS011;66420;50.246;14.320;2023-03-12T12:55:29;5.10;;;1.80;;
77350;SDS011;66420;50.246;14.320;2023-03-12T12:58:33;6.13;;;2.10;;
77350;SDS011;66420;50.246;14.320;2023-03-12T13:01:37;3.78;;;2.00;;
77350;SDS011;66420;50.246;14.320;2023-03-12T13:04:30;4.68;;;2.30;;
77350;SDS011;66420;50.246;14.320;2023-03-12T13:10:06;5.93;;;1.98;;
77350;SDS011;66420;50.246;14.320;2023-03-12T13:12:51;6.43;;;1.95;;
77350;SDS011;66420;50.246;14.320;2023-03-12T13:15:39;7.65;;;1.80;;
77350;SDS011;66420;50.246;14.320;2023-03-12T13:18:27;6.28;;;2.45;;
77350;SDS011;66420;50.246;14.320;2023-03-12T13:21:56;5.43;;;2.00;;
77350;SDS011;66420;50.246;14.320;2023-03-12T13:24:28;6.82;;;2.55;;
77350;SDS011;66420;50.246;14.320;2023-03-12T13:27:18;6.75;;;2.15;;
77350;SDS011;66420;50.246;14.320;2023-03-12T13:30:31;5.43;;;2.13;;
77350;SDS011;66420;50.246;14.320;2023-03-12T13:33:36;6.43;;;1.85;;
77350;SDS011;66420;50.246;14.320;2023-03-12T13:36:28;7.38;;;2.20;;
77350;SDS011;66420;50.246;14.320;2023-03-12T13:41:59;6.80;;;2.00;;
77350;SDS011;66420;50.246;14.320;2023-03-12T13:44:45;6.68;;;2.00;;
77350;SDS011;66420;50.246;14.320;2023-03-12T13:47:29;4.22;;;2.00;;
77350;SDS011;66420;50.246;14.320;2023-03-12T13:50:20;7.07;;;1.98;;
77350;SDS011;66420;50.246;14.320;2023-03-12T13:53:07;7.55;;;2.55;;
77350;SDS011;66420;50.246;14.320;2023-03-12T13:56:08;7.22;;;2.25;;
77350;SDS011;66420;50.246;14.320;2023-03-12T13:59:06;6.63;;;1.95;;
77350;SDS011;66420;50.246;14.320;2023-03-12T14:02:01;5.38;;;2.17;;
77350;SDS011;66420;50.246;14.320;2023-03-12T14:05:02;6.38;;;2.47;;
77350;SDS011;66420;50.246;14.320;2023-03-12T14:17:19;6.82;;;1.67;;
77350;SDS011;66420;50.246;14.320;2023-03-12T14:20:15;3.92;;;1.77;;
77350;SDS011;66420;50.246;14.320;2023-03-12T14:23:03;5.18;;;2.20;;
77350;SDS011;66420;50.246;14.320;2023-03-12T14:25:52;5.72;;;2.30;;
77350;SDS011;66420;50.246;14.320;2023-03-12T14:28:51;6.55;;;2.10;;
77350;SDS011;66420;50.246;14.320;2023-03-12T14:31:43;5.32;;;2.22;;
77350;SDS011;66420;50.246;14.320;2023-03-12T14:34:37;5.13;;;2.33;;
77350;SDS011;66420;50.246;14.320;2023-03-12T14:40:42;5.20;;;2.28;;
77350;SDS011;66420;50.246;14.320;2023-03-12T14:43:30;4.90;;;2.30;;
77350;SDS011;66420;50.246;14.320;2023-03-12T14:46:18;6.88;;;2.55;;
77350;SDS011;66420;50.246;14.320;2023-03-12T14:49:07;8.10;;;2.28;;
77350;SDS011;66420;50.246;14.320;2023-03-12T14:52:02;6.57;;;2.50;;
77350;SDS011;66420;50.246;14.320;2023-03-12T14:55:10;7.25;;;2.20;;
77350;SDS011;66420;50.246;14.320;2023-03-12T14:58:13;5.88;;;2.08;;
77350;SDS011;66420;50.246;14.320;2023-03-12T15:01:02;5.32;;;2.55;;
77350;SDS011;66420;50.246;14.320;2023-03-12T15:03:53;4.93;;;1.83;;
77350;SDS011;66420;50.246;14.320;2023-03-12T15:06:45;5.97;;;2.00;;
77350;SDS011;66420;50.246;14.320;2023-03-12T15:09:33;3.38;;;1.83;;
77350;SDS011;66420;50.246;14.320;2023-03-12T15:12:20;5.68;;;1.77;;
77350;SDS011;66420;50.246;14.320;2023-03-12T15:15:08;4.78;;;2.30;;
77350;SDS011;66420;50.246;14.320;2023-03-12T15:18:07;7.13;;;2.42;;
77350;SDS011;66420;50.246;14.320;2023-03-12T15:21:00;6.35;;;2.47;;
77350;SDS011;66420;50.246;14.320;2023-03-12T15:23:46;5.50;;;2.42;;
77350;SDS011;66420;50.246;14.320;2023-03-12T15:26:32;5.72;;;2.35;;
77350;SDS011;66420;50.246;14.320;2023-03-12T15:29:24;6.20;;;2.38;;
77350;SDS011;66420;50.246;14.320;2023-03-12T15:32:14;5.28;;;2.28;;
77350;SDS011;66420;50.246;14.320;2023-03-12T15:35:10;5.55;;;1.95;;
77350;SDS011;66420;50.246;14.320;2023-03-12T15:37:57;5.22;;;2.13;;
77350;SDS011;66420;50.246;14.320;2023-03-12T15:40:47;6.15;;;2.08;;
77350;SDS011;66420;50.246;14.320;2023-03-12T15:43:33;5.80;;;2.30;;
77350;SDS011;66420;50.246;14.320;2023-03-12T15:46:21;3.80;;;2.08;;
77350;SDS011;66420;50.246;14.320;2023-03-12T15:49:10;4.15;;;1.92;;
77350;SDS011;66420;50.246;14.320;2023-03-12T15:57:57;5.43;;;1.92;;
77350;SDS011;66420;50.246;14.320;2023-03-12T16:00:43;5.97;;;2.38;;
77350;SDS011;66420;50.246;14.320;2023-03-12T16:03:28;4.20;;;1.92;;
77350;SDS011;66420;50.246;14.320;2023-03-12T16:06:14;5.18;;;2.20;;
77350;SDS011;66420;50.246;14.320;2023-03-12T16:09:01;3.80;;;1.95;;
77350;SDS011;66420;50.246;14.320;2023-03-12T16:11:47;6.78;;;2.10;;
77350;SDS011;66420;50.246;14.320;2023-03-12T16:14:32;7.38;;;2.50;;
77350;SDS011;66420;50.246;14.320;2023-03-12T16:17:19;5.90;;;2.22;;
77350;SDS011;66420;50.246;14.320;2023-03-12T16:20:05;8.20;;;2.60;;
77350;SDS011;66420;50.246;14.320;2023-03-12T16:22:53;6.45;;;2.92;;
77350;SDS011;66420;50.246;14.320;2023-03-12T16:25:40;9.23;;;4.43;;
77350;SDS011;66420;50.246;14.320;2023-03-12T16:28:26;6.10;;;1.95;;
77350;SDS011;66420;50.246;14.320;2023-03-12T16:31:12;7.90;;;3.15;;
77350;SDS011;66420;50.246;14.320;2023-03-12T16:33:58;4.60;;;1.95;;
77350;SDS011;66420;50.246;14.320;2023-03-12T16:36:43;5.47;;;2.40;;
77350;SDS011;66420;50.246;14.320;2023-03-12T16:39:28;5.20;;;2.33;;
77350;SDS011;66420;50.246;14.320;2023-03-12T16:42:16;5.13;;;3.00;;
77350;SDS011;66420;50.246;14.320;2023-03-12T16:45:03;8.00;;;3.40;;
77350;SDS011;66420;50.246;14.320;2023-03-12T16:47:51;6.68;;;2.80;;
77350;SDS011;66420;50.246;14.320;2023-03-12T16:50:38;6.35;;;2.67;;
77350;SDS011;66420;50.246;14.320;2023-03-12T16:53:23;7.53;;;2.88;;
77350;SDS011;66420;50.246;14.320;2023-03-12T16:56:13;6.88;;;3.20;;
77350;SDS011;66420;50.246;14.320;2023-03-12T16:59:10;5.88;;;3.10;;
77350;SDS011;66420;50.246;14.320;2023-03-12T17:02:16;6.43;;;2.90;;
77350;SDS011;66420;50.246;14.320;2023-03-12T17:05:02;7.60;;;3.80;;
77350;SDS011;66420;50.246;14.320;2023-03-12T17:07:47;6.13;;;3.08;;
77350;SDS011;66420;50.246;14.320;2023-03-12T17:10:32;5.88;;;2.92;;
77350;SDS011;66420;50.246;14.320;2023-03-12T17:13:20;6.65;;;3.10;;
77350;SDS011;66420;50.246;14.320;2023-03-12T17:16:10;5.72;;;3.17;;
77350;SDS011;66420;50.246;14.320;2023-03-12T17:18:56;6.20;;;3.08;;
77350;SDS011;66420;50.246;14.320;2023-03-12T17:21:41;6.35;;;2.75;;
77350;SDS011;66420;50.246;14.320;2023-03-12T17:24:26;6.05;;;3.05;;
77350;SDS011;66420;50.246;14.320;2023-03-12T17:27:12;8.95;;;3.10;;
77350;SDS011;66420;50.246;14.320;2023-03-12T17:29:57;5.90;;;2.92;;
77350;SDS011;66420;50.246;14.320;2023-03-12T17:32:44;6.45;;;3.78;;
77350;SDS011;66420;50.246;14.320;2023-03-12T17:35:29;9.88;;;3.50;;
77350;SDS011;66420;50.246;14.320;2023-03-12T17:38:14;7.75;;;3.65;;
77350;SDS011;66420;50.246;14.320;2023-03-12T17:40:59;8.02;;;3.58;;
77350;SDS011;66420;50.246;14.320;2023-03-12T17:43:44;7.35;;;3.58;;
77350;SDS011;66420;50.246;14.320;2023-03-12T17:46:29;8.98;;;3.78;;
77350;SDS011;66420;50.246;14.320;2023-03-12T17:49:14;4.43;;;2.88;;
77350;SDS011;66420;50.246;14.320;2023-03-12T17:52:00;6.53;;;3.40;;
77350;SDS011;66420;50.246;14.320;2023-03-12T17:54:46;8.15;;;3.72;;
77350;SDS011;66420;50.246;14.320;2023-03-12T17:57:30;5.82;;;3.22;;
77350;SDS011;66420;50.246;14.320;2023-03-12T18:00:15;5.63;;;3.47;;
77350;SDS011;66420;50.246;14.320;2023-03-12T18:03:01;6.20;;;3.47;;
77350;SDS011;66420;50.246;14.320;2023-03-12T18:05:48;5.95;;;3.40;;
77350;SDS011;66420;50.246;14.320;2023-03-12T18:08:33;5.80;;;3.35;;
77350;SDS011;66420;50.246;14.320;2023-03-12T18:11:18;6.90;;;4.05;;
77350;SDS011;66420;50.246;14.320;2023-03-12T18:14:03;7.13;;;3.72;;
77350;SDS011;66420;50.246;14.320;2023-03-12T18:16:47;5.90;;;3.72;;
77350;SDS011;66420;50.246;14.320;2023-03-12T18:19:32;6.47;;;3.72;;
77350;SDS011;66420;50.246;14.320;2023-03-12T18:22:17;8.15;;;4.20;;